sensor_id;sensor_type;location;lat;lon;timestamp;pressure;altitude;pressure_sealevel;temperature;humidity
73073;BME280;61260;51.090;-1.786;2023-01-26T14:10:02;102379.84;;;22.70;42.93
73073;BME280;61260;51.090;-1.786;2023-01-26T14:18:42;102375.57;;;23.13;43.19
73073;BME280;61260;51.090;-1.786;2023-01-26T14:21:18;102376.56;;;23.18;42.06
73073;BME280;61260;51.090;-1.786;2023-01-26T14:23:54;102385.16;;;23.25;42.00
73073;BME280;61260;51.090;-1.786;2023-01-26T14:26:29;102395.41;;;23.32;42.08
73073;BME280;61260;51.090;-1.786;2023-01-26T15:02:22;102399.26;;;23.59;39.54
73073;BME280;61260;51.090;-1.786;2023-01-26T15:04:55;102390.48;;;23.57;39.31
73073;BME280;61260;51.090;-1.786;2023-01-26T15:07:37;102392.05;;;23.53;38.85
73073;BME280;61260;51.090;-1.786;2023-01-26T15:25:24;102383.17;;;23.97;41.69
73073;BME280;61260;51.090;-1.786;2023-01-26T15:27:55;102386.45;;;23.99;40.43
73073;BME280;61260;51.090;-1.786;2023-01-26T15:30:28;102388.31;;;24.04;40.79
73073;BME280;61260;51.090;-1.786;2023-01-26T15:32:58;102386.58;;;24.07;39.75
73073;BME280;61260;51.090;-1.786;2023-01-26T15:39:25;102389.25;;;24.16;38.35
73073;BME280;61260;51.090;-1.786;2023-01-26T15:42:12;102390.19;;;24.12;38.22
73073;BME280;61260;51.090;-1.786;2023-01-26T15:44:42;102386.31;;;24.18;38.00
73073;BME280;61260;51.090;-1.786;2023-01-26T16:08:31;102397.65;;;25.29;38.54
73073;BME280;61260;51.090;-1.786;2023-01-26T16:11:01;102396.44;;;24.95;37.31
73073;BME280;61260;51.090;-1.786;2023-01-26T16:13:30;102396.64;;;24.74;37.05
73073;BME280;61260;51.090;-1.786;2023-01-26T16:16:00;102397.72;;;24.59;36.64
73073;BME280;61260;51.090;-1.786;2023-01-26T16:25:26;102355.44;;;24.44;38.77
73073;BME280;61260;51.090;-1.786;2023-01-26T16:27:57;102355.16;;;24.30;37.82
73073;BME280;61260;51.090;-1.786;2023-01-26T16:30:27;102356.39;;;24.18;37.83
73073;BME280;61260;51.090;-1.786;2023-01-26T16:32:57;102365.59;;;24.05;38.03
73073;BME280;61260;51.090;-1.786;2023-01-26T16:35:27;102364.98;;;23.93;38.05
73073;BME280;61260;51.090;-1.786;2023-01-26T16:37:57;102364.83;;;23.81;38.00
73073;BME280;61260;51.090;-1.786;2023-01-26T16:40:27;102365.63;;;23.71;38.04
73073;BME280;61260;51.090;-1.786;2023-01-26T16:42:57;102366.05;;;23.61;38.12
73073;BME280;61260;51.090;-1.786;2023-01-26T16:45:28;102360.80;;;23.52;38.21
73073;BME280;61260;51.090;-1.786;2023-01-26T16:47:57;102357.83;;;23.45;38.35
73073;BME280;61260;51.090;-1.786;2023-01-26T16:50:28;102363.27;;;23.40;38.39
73073;BME280;61260;51.090;-1.786;2023-01-26T16:52:58;102369.63;;;23.37;38.43
73073;BME280;61260;51.090;-1.786;2023-01-26T16:55:31;102370.80;;;23.33;38.47
73073;BME280;61260;51.090;-1.786;2023-01-26T16:58:01;102375.33;;;23.30;38.53
73073;BME280;61260;51.090;-1.786;2023-01-26T17:00:31;102374.27;;;23.28;38.53
73073;BME280;61260;51.090;-1.786;2023-01-26T17:03:01;102367.64;;;23.25;38.55
73073;BME280;61260;51.090;-1.786;2023-01-26T17:05:32;102377.17;;;23.24;38.51
73073;BME280;61260;51.090;-1.786;2023-01-26T17:08:02;102379.55;;;23.23;38.59
73073;BME280;61260;51.090;-1.786;2023-01-26T17:10:32;102382.41;;;23.22;38.65
73073;BME280;61260;51.090;-1.786;2023-01-26T17:13:02;102385.44;;;23.22;38.64
73073;BME280;61260;51.090;-1.786;2023-01-26T17:15:32;102393.31;;;23.22;38.59
73073;BME280;61260;51.090;-1.786;2023-01-26T17:18:01;102392.45;;;23.21;38.60
73073;BME280;61260;51.090;-1.786;2023-01-26T17:20:31;102394.52;;;23.21;38.62
73073;BME280;61260;51.090;-1.786;2023-01-26T17:23:01;102391.88;;;23.19;38.72
73073;BME280;61260;51.090;-1.786;2023-01-26T17:25:30;102388.29;;;23.17;38.71
73073;BME280;61260;51.090;-1.786;2023-01-26T17:28:00;102386.67;;;23.16;38.72
73073;BME280;61260;51.090;-1.786;2023-01-26T17:30:30;102387.30;;;23.14;38.67
73073;BME280;61260;51.090;-1.786;2023-01-26T17:33:00;102387.58;;;23.11;38.74
73073;BME280;61260;51.090;-1.786;2023-01-26T17:35:30;102394.24;;;23.09;38.77
73073;BME280;61260;51.090;-1.786;2023-01-26T17:37:59;102396.92;;;23.07;38.75
73073;BME280;61260;51.090;-1.786;2023-01-26T17:40:29;102400.63;;;23.04;38.72
73073;BME280;61260;51.090;-1.786;2023-01-26T17:43:00;102404.10;;;23.01;38.89
73073;BME280;61260;51.090;-1.786;2023-01-26T17:45:30;102403.20;;;22.97;38.98
73073;BME280;61260;51.090;-1.786;2023-01-26T17:48:00;102405.15;;;22.93;39.17
73073;BME280;61260;51.090;-1.786;2023-01-26T17:50:30;102405.13;;;22.89;39.03
73073;BME280;61260;51.090;-1.786;2023-01-26T17:53:00;102411.98;;;22.86;39.08
73073;BME280;61260;51.090;-1.786;2023-01-26T17:55:29;102411.80;;;22.82;39.12
73073;BME280;61260;51.090;-1.786;2023-01-26T17:57:59;102414.39;;;22.78;39.17
73073;BME280;61260;51.090;-1.786;2023-01-26T18:00:29;102415.63;;;22.74;39.25
73073;BME280;61260;51.090;-1.786;2023-01-26T18:02:59;102413.27;;;22.70;39.27
73073;BME280;61260;51.090;-1.786;2023-01-26T18:05:29;102413.07;;;22.67;39.26
73073;BME280;61260;51.090;-1.786;2023-01-26T18:07:59;102413.05;;;22.65;39.31
73073;BME280;61260;51.090;-1.786;2023-01-26T18:10:29;102414.13;;;22.62;39.32
73073;BME280;61260;51.090;-1.786;2023-01-26T18:12:59;102413.02;;;22.61;39.27
73073;BME280;61260;51.090;-1.786;2023-01-26T18:15:29;102417.38;;;22.60;39.28
73073;BME280;61260;51.090;-1.786;2023-01-26T18:17:58;102419.52;;;22.58;39.36
73073;BME280;61260;51.090;-1.786;2023-01-26T18:20:28;102419.89;;;22.57;39.32
73073;BME280;61260;51.090;-1.786;2023-01-26T18:22:58;102423.95;;;22.57;39.46
73073;BME280;61260;51.090;-1.786;2023-01-26T18:25:28;102425.16;;;22.57;39.40
73073;BME280;61260;51.090;-1.786;2023-01-26T18:27:58;102426.37;;;22.60;39.46
73073;BME280;61260;51.090;-1.786;2023-01-26T18:30:28;102426.23;;;22.62;39.32
73073;BME280;61260;51.090;-1.786;2023-01-26T18:32:58;102425.72;;;22.66;39.41
73073;BME280;61260;51.090;-1.786;2023-01-26T18:35:28;102422.17;;;22.70;39.34
73073;BME280;61260;51.090;-1.786;2023-01-26T18:37:58;102423.91;;;22.74;39.33
73073;BME280;61260;51.090;-1.786;2023-01-26T18:40:28;102424.66;;;22.78;39.37
73073;BME280;61260;51.090;-1.786;2023-01-26T18:42:59;102429.00;;;22.82;39.40
73073;BME280;61260;51.090;-1.786;2023-01-26T18:45:29;102437.14;;;22.85;39.33
73073;BME280;61260;51.090;-1.786;2023-01-26T18:47:59;102437.95;;;22.87;39.41
73073;BME280;61260;51.090;-1.786;2023-01-26T18:50:29;102441.40;;;22.89;39.16
73073;BME280;61260;51.090;-1.786;2023-01-26T18:52:59;102444.06;;;22.90;39.19
73073;BME280;61260;51.090;-1.786;2023-01-26T18:55:30;102447.02;;;22.92;39.20
73073;BME280;61260;51.090;-1.786;2023-01-26T18:58:01;102450.62;;;22.93;39.21
73073;BME280;61260;51.090;-1.786;2023-01-26T19:00:32;102453.55;;;22.94;39.18
73073;BME280;61260;51.090;-1.786;2023-01-26T19:03:03;102453.33;;;22.94;39.18
73073;BME280;61260;51.090;-1.786;2023-01-26T19:05:33;102455.39;;;22.93;39.10
73073;BME280;61260;51.090;-1.786;2023-01-26T19:08:03;102451.31;;;22.92;39.15
73073;BME280;61260;51.090;-1.786;2023-01-26T19:10:38;102456.73;;;22.92;39.16
73073;BME280;61260;51.090;-1.786;2023-01-26T19:13:08;102454.98;;;22.91;39.15
73073;BME280;61260;51.090;-1.786;2023-01-26T19:15:38;102457.92;;;22.91;39.04
73073;BME280;61260;51.090;-1.786;2023-01-26T19:18:08;102456.48;;;22.90;39.11
73073;BME280;61260;51.090;-1.786;2023-01-26T19:20:38;102453.29;;;22.90;39.12
73073;BME280;61260;51.090;-1.786;2023-01-26T19:23:08;102453.20;;;22.90;39.15
73073;BME280;61260;51.090;-1.786;2023-01-26T19:25:39;102448.26;;;22.89;39.19
73073;BME280;61260;51.090;-1.786;2023-01-26T19:28:09;102445.89;;;22.90;39.15
73073;BME280;61260;51.090;-1.786;2023-01-26T19:30:38;102440.23;;;22.90;39.03
73073;BME280;61260;51.090;-1.786;2023-01-26T19:33:09;102438.42;;;22.91;39.07
73073;BME280;61260;51.090;-1.786;2023-01-26T19:36:00;102437.77;;;22.92;39.14
73073;BME280;61260;51.090;-1.786;2023-01-26T19:38:31;102438.90;;;22.92;39.13
73073;BME280;61260;51.090;-1.786;2023-01-26T19:41:02;102441.46;;;22.93;39.00
73073;BME280;61260;51.090;-1.786;2023-01-26T19:43:32;102442.58;;;22.93;39.11
73073;BME280;61260;51.090;-1.786;2023-01-26T19:46:02;102445.04;;;22.94;39.08
73073;BME280;61260;51.090;-1.786;2023-01-26T19:48:32;102447.13;;;22.94;39.03
73073;BME280;61260;51.090;-1.786;2023-01-26T19:51:04;102452.05;;;22.93;39.00
73073;BME280;61260;51.090;-1.786;2023-01-26T19:53:37;102455.08;;;22.93;38.93
73073;BME280;61260;51.090;-1.786;2023-01-26T19:56:10;102454.27;;;22.92;38.84
73073;BME280;61260;51.090;-1.786;2023-01-26T19:58:40;102458.41;;;22.91;39.01
73073;BME280;61260;51.090;-1.786;2023-01-26T20:01:11;102453.30;;;22.90;39.04
73073;BME280;61260;51.090;-1.786;2023-01-26T20:03:41;102449.39;;;22.90;38.93
73073;BME280;61260;51.090;-1.786;2023-01-26T20:06:16;102449.47;;;22.90;39.06
73073;BME280;61260;51.090;-1.786;2023-01-26T20:08:48;102440.01;;;22.91;38.98
73073;BME280;61260;51.090;-1.786;2023-01-26T20:11:18;102438.67;;;22.93;39.03
73073;BME280;61260;51.090;-1.786;2023-01-26T20:13:55;102439.34;;;22.96;38.98
73073;BME280;61260;51.090;-1.786;2023-01-26T20:16:26;102437.62;;;23.00;39.10
73073;BME280;61260;51.090;-1.786;2023-01-26T20:18:57;102430.59;;;23.05;39.03
73073;BME280;61260;51.090;-1.786;2023-01-26T20:21:28;102429.29;;;23.10;38.97
73073;BME280;61260;51.090;-1.786;2023-01-26T20:23:58;102425.13;;;23.15;38.98
73073;BME280;61260;51.090;-1.786;2023-01-26T20:26:28;102427.40;;;23.20;38.92
73073;BME280;61260;51.090;-1.786;2023-01-26T20:28:58;102415.52;;;23.25;38.77
73073;BME280;61260;51.090;-1.786;2023-01-26T20:31:29;102418.10;;;23.30;38.79
73073;BME280;61260;51.090;-1.786;2023-01-26T20:34:00;102413.74;;;23.34;38.70
73073;BME280;61260;51.090;-1.786;2023-01-26T20:36:32;102412.34;;;23.37;38.72
73073;BME280;61260;51.090;-1.786;2023-01-26T20:39:02;102412.42;;;23.41;38.59
73073;BME280;61260;51.090;-1.786;2023-01-26T20:41:33;102408.25;;;23.43;38.60
73073;BME280;61260;51.090;-1.786;2023-01-26T20:44:05;102406.92;;;23.46;38.65
73073;BME280;61260;51.090;-1.786;2023-01-26T20:46:37;102407.40;;;23.48;38.50
73073;BME280;61260;51.090;-1.786;2023-01-26T20:49:11;102408.86;;;23.51;38.44
73073;BME280;61260;51.090;-1.786;2023-01-26T20:51:42;102408.80;;;23.52;38.45
73073;BME280;61260;51.090;-1.786;2023-01-26T20:54:11;102415.33;;;23.55;38.49
73073;BME280;61260;51.090;-1.786;2023-01-26T20:56:41;102419.07;;;23.54;38.42
73073;BME280;61260;51.090;-1.786;2023-01-26T20:59:13;102417.98;;;23.57;38.37
73073;BME280;61260;51.090;-1.786;2023-01-26T21:01:43;102425.41;;;23.60;38.45
73073;BME280;61260;51.090;-1.786;2023-01-26T21:04:13;102425.52;;;23.62;38.41
73073;BME280;61260;51.090;-1.786;2023-01-26T21:06:43;102425.77;;;23.65;38.31
73073;BME280;61260;51.090;-1.786;2023-01-26T21:09:13;102421.80;;;23.66;38.36
73073;BME280;61260;51.090;-1.786;2023-01-26T21:11:42;102416.95;;;23.67;38.29
73073;BME280;61260;51.090;-1.786;2023-01-26T21:14:13;102418.38;;;23.68;38.21
73073;BME280;61260;51.090;-1.786;2023-01-26T21:16:43;102413.60;;;23.68;38.25
73073;BME280;61260;51.090;-1.786;2023-01-26T21:19:14;102419.65;;;23.67;38.27
73073;BME280;61260;51.090;-1.786;2023-01-26T21:21:44;102423.63;;;23.67;38.24
73073;BME280;61260;51.090;-1.786;2023-01-26T21:24:14;102425.15;;;23.67;38.19
73073;BME280;61260;51.090;-1.786;2023-01-26T21:26:44;102428.41;;;23.66;38.25
73073;BME280;61260;51.090;-1.786;2023-01-26T21:29:16;102423.95;;;23.65;38.27
73073;BME280;61260;51.090;-1.786;2023-01-26T21:31:46;102423.77;;;23.64;38.13
73073;BME280;61260;51.090;-1.786;2023-01-26T21:34:19;102425.69;;;23.64;38.25
73073;BME280;61260;51.090;-1.786;2023-01-26T21:36:49;102425.27;;;23.63;38.22
73073;BME280;61260;51.090;-1.786;2023-01-26T21:39:19;102422.90;;;23.63;38.25
73073;BME280;61260;51.090;-1.786;2023-01-26T21:41:49;102421.46;;;23.62;38.25
73073;BME280;61260;51.090;-1.786;2023-01-26T21:44:26;102424.64;;;23.62;38.20
73073;BME280;61260;51.090;-1.786;2023-01-26T21:46:58;102427.77;;;23.63;38.18
73073;BME280;61260;51.090;-1.786;2023-01-26T21:49:29;102432.54;;;23.63;38.15
73073;BME280;61260;51.090;-1.786;2023-01-26T21:51:59;102433.74;;;23.65;38.19
73073;BME280;61260;51.090;-1.786;2023-01-26T21:54:57;102433.67;;;23.66;38.30
73073;BME280;61260;51.090;-1.786;2023-01-26T21:57:27;102432.48;;;23.67;38.19
73073;BME280;61260;51.090;-1.786;2023-01-26T22:00:17;102442.77;;;23.68;38.10
73073;BME280;61260;51.090;-1.786;2023-01-26T22:02:47;102446.52;;;23.68;38.24
73073;BME280;61260;51.090;-1.786;2023-01-26T22:05:17;102448.45;;;23.70;38.28
73073;BME280;61260;51.090;-1.786;2023-01-26T22:07:47;102452.52;;;23.72;38.13
73073;BME280;61260;51.090;-1.786;2023-01-26T22:10:18;102456.84;;;23.75;38.19
73073;BME280;61260;51.090;-1.786;2023-01-26T22:12:48;102450.41;;;23.77;38.12
73073;BME280;61260;51.090;-1.786;2023-01-26T22:15:19;102450.67;;;23.79;38.13
73073;BME280;61260;51.090;-1.786;2023-01-26T22:17:49;102452.84;;;23.82;38.12
73073;BME280;61260;51.090;-1.786;2023-01-26T22:20:19;102460.05;;;23.84;38.08
73073;BME280;61260;51.090;-1.786;2023-01-26T22:22:49;102460.46;;;23.86;38.08
73073;BME280;61260;51.090;-1.786;2023-01-26T22:25:19;102454.66;;;23.87;38.06
73073;BME280;61260;51.090;-1.786;2023-01-26T22:27:49;102453.78;;;23.90;38.02
73073;BME280;61260;51.090;-1.786;2023-01-26T22:30:20;102447.66;;;23.93;38.06
73073;BME280;61260;51.090;-1.786;2023-01-26T22:32:50;102450.72;;;23.95;37.99
73073;BME280;61260;51.090;-1.786;2023-01-26T22:35:20;102448.67;;;23.98;37.94
73073;BME280;61260;51.090;-1.786;2023-01-26T22:37:50;102455.63;;;24.01;37.94
73073;BME280;61260;51.090;-1.786;2023-01-26T22:40:21;102456.42;;;24.03;37.91
73073;BME280;61260;51.090;-1.786;2023-01-26T22:42:51;102459.48;;;24.05;37.87
73073;BME280;61260;51.090;-1.786;2023-01-26T22:45:21;102456.04;;;24.08;37.85
73073;BME280;61260;51.090;-1.786;2023-01-26T22:47:51;102455.02;;;24.10;37.88
73073;BME280;61260;51.090;-1.786;2023-01-26T22:50:21;102454.08;;;24.12;37.78
73073;BME280;61260;51.090;-1.786;2023-01-26T22:52:51;102453.95;;;24.15;37.77
73073;BME280;61260;51.090;-1.786;2023-01-26T22:55:21;102450.84;;;24.19;37.76
73073;BME280;61260;51.090;-1.786;2023-01-26T22:57:51;102446.16;;;24.22;37.65
73073;BME280;61260;51.090;-1.786;2023-01-26T23:00:21;102445.77;;;24.26;37.78
73073;BME280;61260;51.090;-1.786;2023-01-26T23:02:51;102443.64;;;24.29;37.71
73073;BME280;61260;51.090;-1.786;2023-01-26T23:05:21;102438.33;;;24.33;37.66
73073;BME280;61260;51.090;-1.786;2023-01-26T23:07:51;102438.01;;;24.36;37.59
73073;BME280;61260;51.090;-1.786;2023-01-26T23:10:21;102438.98;;;24.39;37.63
73073;BME280;61260;51.090;-1.786;2023-01-26T23:12:51;102439.46;;;24.42;37.66
73073;BME280;61260;51.090;-1.786;2023-01-26T23:15:21;102438.11;;;24.44;37.59
73073;BME280;61260;51.090;-1.786;2023-01-26T23:17:52;102435.96;;;24.45;37.54
73073;BME280;61260;51.090;-1.786;2023-01-26T23:20:22;102437.88;;;24.47;37.43
73073;BME280;61260;51.090;-1.786;2023-01-26T23:22:52;102438.35;;;24.47;37.48
73073;BME280;61260;51.090;-1.786;2023-01-26T23:25:22;102433.01;;;24.47;37.38
73073;BME280;61260;51.090;-1.786;2023-01-26T23:28:10;102429.80;;;24.45;37.41
73073;BME280;61260;51.090;-1.786;2023-01-26T23:30:40;102423.35;;;24.43;37.37
73073;BME280;61260;51.090;-1.786;2023-01-26T23:33:10;102421.75;;;24.42;37.35
73073;BME280;61260;51.090;-1.786;2023-01-26T23:35:40;102421.02;;;24.39;37.33
73073;BME280;61260;51.090;-1.786;2023-01-26T23:38:11;102416.95;;;24.37;37.53
73073;BME280;61260;51.090;-1.786;2023-01-26T23:40:42;102412.08;;;24.36;37.33
73073;BME280;61260;51.090;-1.786;2023-01-26T23:43:13;102405.92;;;24.33;37.27
73073;BME280;61260;51.090;-1.786;2023-01-26T23:45:45;102401.28;;;24.30;37.20
73073;BME280;61260;51.090;-1.786;2023-01-26T23:48:15;102394.79;;;24.27;37.21
73073;BME280;61260;51.090;-1.786;2023-01-26T23:50:46;102392.14;;;24.22;37.23
73073;BME280;61260;51.090;-1.786;2023-01-26T23:53:16;102384.55;;;24.18;37.26
73073;BME280;61260;51.090;-1.786;2023-01-26T23:55:47;102378.16;;;24.12;37.25
73073;BME280;61260;51.090;-1.786;2023-01-26T23:58:17;102374.45;;;24.08;37.25
